sensor_id;sensor_type;location;lat;lon;timestamp;temperature;humidity
53752;DHT22;41095;53.090;6.692;2023-04-06T00:01:38;3.60;99.90
53752;DHT22;41095;53.090;6.692;2023-04-06T00:04:05;3.70;99.90
53752;DHT22;41095;53.090;6.692;2023-04-06T00:06:31;3.70;99.90
53752;DHT22;41095;53.090;6.692;2023-04-06T00:08:57;3.60;99.90
53752;DHT22;41095;53.090;6.692;2023-04-06T00:11:23;3.60;99.90
53752;DHT22;41095;53.090;6.692;2023-04-06T00:13:49;3.60;99.90
53752;DHT22;41095;53.090;6.692;2023-04-06T00:16:15;3.60;99.90
53752;DHT22;41095;53.090;6.692;2023-04-06T00:18:41;3.70;99.90
53752;DHT22;41095;53.090;6.692;2023-04-06T00:21:06;3.60;99.90
53752;DHT22;41095;53.090;6.692;2023-04-06T00:23:32;3.60;99.90
53752;DHT22;41095;53.090;6.692;2023-04-06T00:25:58;3.50;99.90
53752;DHT22;41095;53.090;6.692;2023-04-06T00:28:23;3.40;99.90
53752;DHT22;41095;53.090;6.692;2023-04-06T00:30:53;3.30;99.90
53752;DHT22;41095;53.090;6.692;2023-04-06T00:33:20;3.20;99.90
53752;DHT22;41095;53.090;6.692;2023-04-06T00:35:46;3.20;99.90
53752;DHT22;41095;53.090;6.692;2023-04-06T00:38:12;3.10;99.90
53752;DHT22;41095;53.090;6.692;2023-04-06T00:40:38;3.10;99.90
53752;DHT22;41095;53.090;6.692;2023-04-06T00:43:06;3.10;99.90
53752;DHT22;41095;53.090;6.692;2023-04-06T00:45:32;3.00;99.90
53752;DHT22;41095;53.090;6.692;2023-04-06T00:47:58;2.90;99.90
53752;DHT22;41095;53.090;6.692;2023-04-06T00:50:24;2.80;99.90
53752;DHT22;41095;53.090;6.692;2023-04-06T00:52:50;2.80;99.90
53752;DHT22;41095;53.090;6.692;2023-04-06T00:55:17;2.80;99.90
53752;DHT22;41095;53.090;6.692;2023-04-06T00:57:42;2.70;99.90
53752;DHT22;41095;53.090;6.692;2023-04-06T01:00:08;2.70;99.90
53752;DHT22;41095;53.090;6.692;2023-04-06T01:02:35;2.70;99.90
53752;DHT22;41095;53.090;6.692;2023-04-06T01:05:01;2.70;99.90
53752;DHT22;41095;53.090;6.692;2023-04-06T01:07:27;2.80;99.90
53752;DHT22;41095;53.090;6.692;2023-04-06T01:09:54;2.70;99.90
53752;DHT22;41095;53.090;6.692;2023-04-06T01:12:20;2.70;99.90
53752;DHT22;41095;53.090;6.692;2023-04-06T01:14:46;2.60;99.90
53752;DHT22;41095;53.090;6.692;2023-04-06T01:17:12;2.60;99.90
53752;DHT22;41095;53.090;6.692;2023-04-06T01:19:37;2.60;99.90
53752;DHT22;41095;53.090;6.692;2023-04-06T01:22:05;2.50;99.90
53752;DHT22;41095;53.090;6.692;2023-04-06T01:24:31;2.30;99.90
53752;DHT22;41095;53.090;6.692;2023-04-06T01:26:57;2.10;99.90
53752;DHT22;41095;53.090;6.692;2023-04-06T01:29:23;2.00;99.90
53752;DHT22;41095;53.090;6.692;2023-04-06T01:31:48;1.90;99.90
53752;DHT22;41095;53.090;6.692;2023-04-06T01:34:14;1.90;99.90
53752;DHT22;41095;53.090;6.692;2023-04-06T01:36:40;1.90;99.90
53752;DHT22;41095;53.090;6.692;2023-04-06T01:39:06;1.90;99.90
53752;DHT22;41095;53.090;6.692;2023-04-06T01:41:31;1.90;99.90
53752;DHT22;41095;53.090;6.692;2023-04-06T01:43:57;1.90;99.90
53752;DHT22;41095;53.090;6.692;2023-04-06T01:46:23;2.00;99.90
53752;DHT22;41095;53.090;6.692;2023-04-06T01:48:48;2.10;99.90
53752;DHT22;41095;53.090;6.692;2023-04-06T01:51:14;2.10;99.90
53752;DHT22;41095;53.090;6.692;2023-04-06T01:53:40;2.10;99.90
53752;DHT22;41095;53.090;6.692;2023-04-06T01:56:06;2.10;99.90
53752;DHT22;41095;53.090;6.692;2023-04-06T01:58:32;2.00;99.90
53752;DHT22;41095;53.090;6.692;2023-04-06T02:00:57;2.00;99.90
53752;DHT22;41095;53.090;6.692;2023-04-06T02:03:23;2.00;99.90
53752;DHT22;41095;53.090;6.692;2023-04-06T02:05:49;1.90;99.90
53752;DHT22;41095;53.090;6.692;2023-04-06T02:08:15;1.90;99.90
53752;DHT22;41095;53.090;6.692;2023-04-06T02:10:41;1.80;99.90
53752;DHT22;41095;53.090;6.692;2023-04-06T02:13:06;2.00;99.90
53752;DHT22;41095;53.090;6.692;2023-04-06T02:15:32;2.10;99.90
53752;DHT22;41095;53.090;6.692;2023-04-06T02:17:59;2.10;99.90
53752;DHT22;41095;53.090;6.692;2023-04-06T02:20:24;2.10;99.90
53752;DHT22;41095;53.090;6.692;2023-04-06T02:22:50;2.10;99.90
53752;DHT22;41095;53.090;6.692;2023-04-06T02:25:16;2.00;99.90
53752;DHT22;41095;53.090;6.692;2023-04-06T02:27:42;1.90;99.90
53752;DHT22;41095;53.090;6.692;2023-04-06T02:30:08;1.80;99.90
53752;DHT22;41095;53.090;6.692;2023-04-06T02:32:34;1.80;99.90
53752;DHT22;41095;53.090;6.692;2023-04-06T02:35:00;1.80;99.90
53752;DHT22;41095;53.090;6.692;2023-04-06T02:37:25;1.80;99.90
53752;DHT22;41095;53.090;6.692;2023-04-06T02:39:51;1.80;99.90
53752;DHT22;41095;53.090;6.692;2023-04-06T02:42:17;1.80;99.90
53752;DHT22;41095;53.090;6.692;2023-04-06T02:44:43;1.80;99.90
53752;DHT22;41095;53.090;6.692;2023-04-06T02:47:09;1.70;99.90
53752;DHT22;41095;53.090;6.692;2023-04-06T02:49:35;1.70;99.90
53752;DHT22;41095;53.090;6.692;2023-04-06T02:52:00;1.60;99.90
53752;DHT22;41095;53.090;6.692;2023-04-06T02:54:26;1.60;99.90
53752;DHT22;41095;53.090;6.692;2023-04-06T02:56:52;1.50;99.90
53752;DHT22;41095;53.090;6.692;2023-04-06T02:59:18;1.50;99.90
53752;DHT22;41095;53.090;6.692;2023-04-06T03:01:43;1.40;99.90
53752;DHT22;41095;53.090;6.692;2023-04-06T03:04:09;1.40;99.90
53752;DHT22;41095;53.090;6.692;2023-04-06T03:06:35;1.40;99.90
53752;DHT22;41095;53.090;6.692;2023-04-06T03:09:00;1.30;99.90
53752;DHT22;41095;53.090;6.692;2023-04-06T03:11:26;1.30;99.90
53752;DHT22;41095;53.090;6.692;2023-04-06T03:13:52;1.30;99.90
53752;DHT22;41095;53.090;6.692;2023-04-06T03:16:18;1.30;99.90
53752;DHT22;41095;53.090;6.692;2023-04-06T03:18:43;1.30;99.90
53752;DHT22;41095;53.090;6.692;2023-04-06T03:21:10;1.30;99.90
53752;DHT22;41095;53.090;6.692;2023-04-06T03:23:36;1.40;99.90
53752;DHT22;41095;53.090;6.692;2023-04-06T03:26:02;1.40;99.90
53752;DHT22;41095;53.090;6.692;2023-04-06T03:28:28;1.30;99.90
53752;DHT22;41095;53.090;6.692;2023-04-06T03:30:54;1.20;99.90
53752;DHT22;41095;53.090;6.692;2023-04-06T03:33:20;1.20;99.90
53752;DHT22;41095;53.090;6.692;2023-04-06T03:35:45;1.10;99.90
53752;DHT22;41095;53.090;6.692;2023-04-06T03:38:11;1.10;99.90
53752;DHT22;41095;53.090;6.692;2023-04-06T03:40:37;1.00;99.90
53752;DHT22;41095;53.090;6.692;2023-04-06T03:43:03;1.00;99.90
53752;DHT22;41095;53.090;6.692;2023-04-06T03:45:29;0.90;99.90
53752;DHT22;41095;53.090;6.692;2023-04-06T03:47:55;0.90;99.90
53752;DHT22;41095;53.090;6.692;2023-04-06T03:50:20;0.80;99.90
53752;DHT22;41095;53.090;6.692;2023-04-06T03:52:46;0.90;99.90
53752;DHT22;41095;53.090;6.692;2023-04-06T03:55:12;0.90;99.90
53752;DHT22;41095;53.090;6.692;2023-04-06T03:57:37;0.90;99.90
53752;DHT22;41095;53.090;6.692;2023-04-06T04:00:03;0.90;99.90
53752;DHT22;41095;53.090;6.692;2023-04-06T04:02:29;0.80;99.90
53752;DHT22;41095;53.090;6.692;2023-04-06T04:04:55;0.90;99.90
53752;DHT22;41095;53.090;6.692;2023-04-06T04:07:21;0.80;99.90
53752;DHT22;41095;53.090;6.692;2023-04-06T04:09:46;0.90;99.90
53752;DHT22;41095;53.090;6.692;2023-04-06T04:12:12;0.90;99.90
53752;DHT22;41095;53.090;6.692;2023-04-06T04:14:40;0.90;99.90
53752;DHT22;41095;53.090;6.692;2023-04-06T04:17:05;0.90;99.90
53752;DHT22;41095;53.090;6.692;2023-04-06T04:19:31;0.90;99.90
53752;DHT22;41095;53.090;6.692;2023-04-06T04:21:57;0.90;99.90
53752;DHT22;41095;53.090;6.692;2023-04-06T04:24:22;0.90;99.90
53752;DHT22;41095;53.090;6.692;2023-04-06T04:26:48;1.00;99.90
53752;DHT22;41095;53.090;6.692;2023-04-06T04:29:14;1.30;99.90
53752;DHT22;41095;53.090;6.692;2023-04-06T04:31:40;0.80;99.90
53752;DHT22;41095;53.090;6.692;2023-04-06T04:34:06;0.90;99.90
53752;DHT22;41095;53.090;6.692;2023-04-06T04:36:32;0.90;99.90
53752;DHT22;41095;53.090;6.692;2023-04-06T04:38:58;0.90;99.90
53752;DHT22;41095;53.090;6.692;2023-04-06T04:41:24;0.90;99.90
53752;DHT22;41095;53.090;6.692;2023-04-06T04:43:50;1.00;99.90
53752;DHT22;41095;53.090;6.692;2023-04-06T04:46:15;1.00;99.90
53752;DHT22;41095;53.090;6.692;2023-04-06T04:48:41;1.00;99.90
53752;DHT22;41095;53.090;6.692;2023-04-06T04:51:07;0.80;99.90
53752;DHT22;41095;53.090;6.692;2023-04-06T04:53:32;1.10;99.90
53752;DHT22;41095;53.090;6.692;2023-04-06T04:55:58;1.00;99.90
53752;DHT22;41095;53.090;6.692;2023-04-06T04:58:24;1.00;99.90
53752;DHT22;41095;53.090;6.692;2023-04-06T05:00:49;1.00;99.90
53752;DHT22;41095;53.090;6.692;2023-04-06T05:03:22;0.90;99.90
53752;DHT22;41095;53.090;6.692;2023-04-06T05:05:48;1.00;99.90
53752;DHT22;41095;53.090;6.692;2023-04-06T05:08:14;1.00;99.90
53752;DHT22;41095;53.090;6.692;2023-04-06T05:10:41;1.00;99.90
53752;DHT22;41095;53.090;6.692;2023-04-06T05:13:07;1.00;99.90
53752;DHT22;41095;53.090;6.692;2023-04-06T05:15:33;1.00;99.90
53752;DHT22;41095;53.090;6.692;2023-04-06T05:18:01;1.90;99.90
53752;DHT22;41095;53.090;6.692;2023-04-06T05:20:27;1.00;99.90
53752;DHT22;41095;53.090;6.692;2023-04-06T05:22:53;1.00;99.90
53752;DHT22;41095;53.090;6.692;2023-04-06T05:25:19;1.00;99.90
53752;DHT22;41095;53.090;6.692;2023-04-06T05:27:45;1.00;99.90
53752;DHT22;41095;53.090;6.692;2023-04-06T05:30:11;1.00;99.90
53752;DHT22;41095;53.090;6.692;2023-04-06T05:32:37;0.90;99.90
53752;DHT22;41095;53.090;6.692;2023-04-06T05:35:03;1.00;99.90
53752;DHT22;41095;53.090;6.692;2023-04-06T05:37:28;0.90;99.90
53752;DHT22;41095;53.090;6.692;2023-04-06T05:39:54;0.90;99.90
53752;DHT22;41095;53.090;6.692;2023-04-06T05:42:20;1.00;99.90
53752;DHT22;41095;53.090;6.692;2023-04-06T05:44:45;0.90;99.90
53752;DHT22;41095;53.090;6.692;2023-04-06T05:47:11;1.00;99.90
53752;DHT22;41095;53.090;6.692;2023-04-06T05:49:37;1.00;99.90
53752;DHT22;41095;53.090;6.692;2023-04-06T05:52:02;1.00;99.90
53752;DHT22;41095;53.090;6.692;2023-04-06T05:54:29;1.10;99.90
53752;DHT22;41095;53.090;6.692;2023-04-06T05:56:55;1.10;99.90
53752;DHT22;41095;53.090;6.692;2023-04-06T05:59:21;1.10;99.90
53752;DHT22;41095;53.090;6.692;2023-04-06T06:01:47;1.20;99.90
53752;DHT22;41095;53.090;6.692;2023-04-06T06:04:12;1.20;99.90
53752;DHT22;41095;53.090;6.692;2023-04-06T06:06:38;1.30;99.90
53752;DHT22;41095;53.090;6.692;2023-04-06T06:09:04;1.30;99.90
53752;DHT22;41095;53.090;6.692;2023-04-06T06:11:30;1.40;99.90
53752;DHT22;41095;53.090;6.692;2023-04-06T06:13:55;1.40;99.90
53752;DHT22;41095;53.090;6.692;2023-04-06T06:16:21;1.50;99.90
53752;DHT22;41095;53.090;6.692;2023-04-06T06:18:47;1.60;99.90
53752;DHT22;41095;53.090;6.692;2023-04-06T06:21:13;1.80;99.90
53752;DHT22;41095;53.090;6.692;2023-04-06T06:23:39;1.90;99.90
53752;DHT22;41095;53.090;6.692;2023-04-06T06:26:05;1.90;99.90
53752;DHT22;41095;53.090;6.692;2023-04-06T06:28:31;2.00;99.90
53752;DHT22;41095;53.090;6.692;2023-04-06T06:30:57;2.00;99.90
53752;DHT22;41095;53.090;6.692;2023-04-06T06:33:24;2.10;99.90
53752;DHT22;41095;53.090;6.692;2023-04-06T06:35:51;2.20;99.90
53752;DHT22;41095;53.090;6.692;2023-04-06T06:38:17;2.30;99.90
53752;DHT22;41095;53.090;6.692;2023-04-06T06:40:44;2.40;99.90
53752;DHT22;41095;53.090;6.692;2023-04-06T06:43:10;2.50;99.90
53752;DHT22;41095;53.090;6.692;2023-04-06T06:45:36;2.60;99.90
53752;DHT22;41095;53.090;6.692;2023-04-06T06:48:01;2.70;99.90
53752;DHT22;41095;53.090;6.692;2023-04-06T06:50:27;2.80;99.90
53752;DHT22;41095;53.090;6.692;2023-04-06T06:52:53;3.00;99.90
53752;DHT22;41095;53.090;6.692;2023-04-06T06:55:19;3.10;99.90
53752;DHT22;41095;53.090;6.692;2023-04-06T06:57:44;3.20;99.90
53752;DHT22;41095;53.090;6.692;2023-04-06T07:00:13;3.30;99.90
53752;DHT22;41095;53.090;6.692;2023-04-06T07:02:39;3.40;99.90
53752;DHT22;41095;53.090;6.692;2023-04-06T07:05:05;3.50;99.90
53752;DHT22;41095;53.090;6.692;2023-04-06T07:07:32;3.70;99.90
53752;DHT22;41095;53.090;6.692;2023-04-06T07:09:59;3.90;99.90
53752;DHT22;41095;53.090;6.692;2023-04-06T07:12:25;4.00;99.90
53752;DHT22;41095;53.090;6.692;2023-04-06T07:14:51;4.20;99.90
53752;DHT22;41095;53.090;6.692;2023-04-06T07:17:17;4.30;99.90
53752;DHT22;41095;53.090;6.692;2023-04-06T07:19:43;4.50;99.90
53752;DHT22;41095;53.090;6.692;2023-04-06T07:22:08;4.70;99.90
53752;DHT22;41095;53.090;6.692;2023-04-06T07:24:34;4.90;99.90
53752;DHT22;41095;53.090;6.692;2023-04-06T07:27:00;5.30;99.90
53752;DHT22;41095;53.090;6.692;2023-04-06T07:29:26;6.50;99.90
53752;DHT22;41095;53.090;6.692;2023-04-06T07:31:52;7.90;99.90
53752;DHT22;41095;53.090;6.692;2023-04-06T07:34:19;9.20;99.90
53752;DHT22;41095;53.090;6.692;2023-04-06T07:36:45;10.20;99.80
53752;DHT22;41095;53.090;6.692;2023-04-06T07:39:10;10.80;98.30
53752;DHT22;41095;53.090;6.692;2023-04-06T07:41:36;11.60;97.90
53752;DHT22;41095;53.090;6.692;2023-04-06T07:44:03;12.30;97.00
53752;DHT22;41095;53.090;6.692;2023-04-06T07:46:30;12.80;95.60
53752;DHT22;41095;53.090;6.692;2023-04-06T07:48:57;13.20;94.40
53752;DHT22;41095;53.090;6.692;2023-04-06T07:51:23;13.50;94.40
53752;DHT22;41095;53.090;6.692;2023-04-06T07:53:50;14.00;93.80
53752;DHT22;41095;53.090;6.692;2023-04-06T07:56:16;13.90;92.60
53752;DHT22;41095;53.090;6.692;2023-04-06T07:58:42;14.50;92.50
53752;DHT22;41095;53.090;6.692;2023-04-06T08:01:08;14.80;91.50
53752;DHT22;41095;53.090;6.692;2023-04-06T08:03:34;14.90;90.80
53752;DHT22;41095;53.090;6.692;2023-04-06T08:06:01;14.90;88.60
53752;DHT22;41095;53.090;6.692;2023-04-06T08:08:26;15.00;88.80
53752;DHT22;41095;53.090;6.692;2023-04-06T08:10:52;15.20;88.10
53752;DHT22;41095;53.090;6.692;2023-04-06T08:13:18;15.30;86.00
53752;DHT22;41095;53.090;6.692;2023-04-06T08:15:44;15.40;86.50
53752;DHT22;41095;53.090;6.692;2023-04-06T08:18:10;15.50;85.70
53752;DHT22;41095;53.090;6.692;2023-04-06T08:20:36;15.40;85.00
53752;DHT22;41095;53.090;6.692;2023-04-06T08:23:01;15.60;84.70
53752;DHT22;41095;53.090;6.692;2023-04-06T08:25:27;15.50;83.80
53752;DHT22;41095;53.090;6.692;2023-04-06T08:27:53;15.60;84.80
53752;DHT22;41095;53.090;6.692;2023-04-06T08:30:19;15.60;84.40
53752;DHT22;41095;53.090;6.692;2023-04-06T08:32:47;15.60;84.70
53752;DHT22;41095;53.090;6.692;2023-04-06T08:35:13;15.90;83.90
53752;DHT22;41095;53.090;6.692;2023-04-06T08:37:39;16.40;84.80
53752;DHT22;41095;53.090;6.692;2023-04-06T08:40:05;16.50;83.60
53752;DHT22;41095;53.090;6.692;2023-04-06T08:42:40;16.60;82.10
53752;DHT22;41095;53.090;6.692;2023-04-06T08:45:08;16.80;81.70
53752;DHT22;41095;53.090;6.692;2023-04-06T08:47:36;16.90;82.20
53752;DHT22;41095;53.090;6.692;2023-04-06T08:50:04;16.90;81.90
53752;DHT22;41095;53.090;6.692;2023-04-06T08:52:32;17.20;81.90
53752;DHT22;41095;53.090;6.692;2023-04-06T08:54:58;17.30;80.00
53752;DHT22;41095;53.090;6.692;2023-04-06T08:57:25;17.00;77.00
53752;DHT22;41095;53.090;6.692;2023-04-06T08:59:51;16.60;77.60
53752;DHT22;41095;53.090;6.692;2023-04-06T09:02:18;17.00;78.30
53752;DHT22;41095;53.090;6.692;2023-04-06T09:04:47;17.10;76.90
53752;DHT22;41095;53.090;6.692;2023-04-06T09:07:14;17.10;75.40
53752;DHT22;41095;53.090;6.692;2023-04-06T09:09:40;17.10;75.00
53752;DHT22;41095;53.090;6.692;2023-04-06T09:12:25;17.00;73.90
53752;DHT22;41095;53.090;6.692;2023-04-06T09:14:52;17.10;74.30
53752;DHT22;41095;53.090;6.692;2023-04-06T09:17:26;17.40;75.20
53752;DHT22;41095;53.090;6.692;2023-04-06T09:19:52;17.80;74.60
53752;DHT22;41095;53.090;6.692;2023-04-06T09:22:18;18.10;74.50
53752;DHT22;41095;53.090;6.692;2023-04-06T09:24:52;18.30;73.60
53752;DHT22;41095;53.090;6.692;2023-04-06T09:27:33;18.30;71.40
53752;DHT22;41095;53.090;6.692;2023-04-06T09:30:10;18.20;70.40
53752;DHT22;41095;53.090;6.692;2023-04-06T09:35:12;17.80;69.50
53752;DHT22;41095;53.090;6.692;2023-04-06T09:37:38;17.30;70.50
53752;DHT22;41095;53.090;6.692;2023-04-06T09:40:05;16.80;70.90
53752;DHT22;41095;53.090;6.692;2023-04-06T09:42:31;16.40;69.90
53752;DHT22;41095;53.090;6.692;2023-04-06T09:44:57;16.00;69.50
53752;DHT22;41095;53.090;6.692;2023-04-06T09:47:24;15.70;70.00
53752;DHT22;41095;53.090;6.692;2023-04-06T09:49:56;15.50;69.90
53752;DHT22;41095;53.090;6.692;2023-04-06T09:55:12;14.80;70.70
53752;DHT22;41095;53.090;6.692;2023-04-06T09:57:49;14.40;71.70
53752;DHT22;41095;53.090;6.692;2023-04-06T10:00:17;14.20;72.30
53752;DHT22;41095;53.090;6.692;2023-04-06T10:05:52;14.00;73.40
53752;DHT22;41095;53.090;6.692;2023-04-06T10:08:22;14.00;73.20
53752;DHT22;41095;53.090;6.692;2023-04-06T10:10:50;13.80;73.30
53752;DHT22;41095;53.090;6.692;2023-04-06T10:13:18;13.70;73.70
53752;DHT22;41095;53.090;6.692;2023-04-06T10:15:44;13.60;74.60
53752;DHT22;41095;53.090;6.692;2023-04-06T10:18:10;13.50;74.40
53752;DHT22;41095;53.090;6.692;2023-04-06T10:21:00;13.30;74.60
53752;DHT22;41095;53.090;6.692;2023-04-06T10:23:33;13.40;74.50
53752;DHT22;41095;53.090;6.692;2023-04-06T10:26:00;13.50;74.80
53752;DHT22;41095;53.090;6.692;2023-04-06T10:28:32;13.50;74.60
53752;DHT22;41095;53.090;6.692;2023-04-06T10:30:59;13.50;74.70
53752;DHT22;41095;53.090;6.692;2023-04-06T10:33:25;13.70;75.10
53752;DHT22;41095;53.090;6.692;2023-04-06T10:35:51;13.90;74.80
53752;DHT22;41095;53.090;6.692;2023-04-06T10:38:17;14.30;74.50
53752;DHT22;41095;53.090;6.692;2023-04-06T10:40:47;14.60;74.40
53752;DHT22;41095;53.090;6.692;2023-04-06T10:43:20;14.70;73.20
53752;DHT22;41095;53.090;6.692;2023-04-06T10:45:57;14.90;72.40
53752;DHT22;41095;53.090;6.692;2023-04-06T10:48:23;15.10;71.30
53752;DHT22;41095;53.090;6.692;2023-04-06T10:50:53;15.10;69.40
53752;DHT22;41095;53.090;6.692;2023-04-06T10:53:26;15.10;70.70
53752;DHT22;41095;53.090;6.692;2023-04-06T10:55:54;15.00;69.50
53752;DHT22;41095;53.090;6.692;2023-04-06T10:58:20;15.00;68.70
53752;DHT22;41095;53.090;6.692;2023-04-06T11:00:47;15.00;69.60
53752;DHT22;41095;53.090;6.692;2023-04-06T11:03:13;14.90;69.50
53752;DHT22;41095;53.090;6.692;2023-04-06T11:05:38;14.90;69.60
53752;DHT22;41095;53.090;6.692;2023-04-06T11:08:08;14.80;69.80
53752;DHT22;41095;53.090;6.692;2023-04-06T11:10:34;15.00;70.30
53752;DHT22;41095;53.090;6.692;2023-04-06T11:13:00;15.00;70.70
53752;DHT22;41095;53.090;6.692;2023-04-06T11:15:25;15.00;67.80
53752;DHT22;41095;53.090;6.692;2023-04-06T11:17:51;15.10;69.30
53752;DHT22;41095;53.090;6.692;2023-04-06T11:20:17;15.20;69.70
53752;DHT22;41095;53.090;6.692;2023-04-06T11:22:52;15.30;70.00
53752;DHT22;41095;53.090;6.692;2023-04-06T11:25:18;15.40;68.70
53752;DHT22;41095;53.090;6.692;2023-04-06T11:27:45;15.50;69.30
53752;DHT22;41095;53.090;6.692;2023-04-06T11:30:12;15.60;69.10
53752;DHT22;41095;53.090;6.692;2023-04-06T11:32:42;15.50;68.40
53752;DHT22;41095;53.090;6.692;2023-04-06T11:35:32;15.40;68.40
53752;DHT22;41095;53.090;6.692;2023-04-06T11:37:56;15.20;68.90
53752;DHT22;41095;53.090;6.692;2023-04-06T11:40:22;15.20;69.00
53752;DHT22;41095;53.090;6.692;2023-04-06T11:42:55;15.30;69.00
53752;DHT22;41095;53.090;6.692;2023-04-06T11:45:22;15.20;69.00
53752;DHT22;41095;53.090;6.692;2023-04-06T11:47:56;15.20;68.90
53752;DHT22;41095;53.090;6.692;2023-04-06T11:50:23;15.20;68.60
53752;DHT22;41095;53.090;6.692;2023-04-06T11:52:58;15.10;68.40
53752;DHT22;41095;53.090;6.692;2023-04-06T11:55:25;14.90;68.40
53752;DHT22;41095;53.090;6.692;2023-04-06T11:57:51;14.70;67.70
53752;DHT22;41095;53.090;6.692;2023-04-06T12:00:17;14.70;68.30
53752;DHT22;41095;53.090;6.692;2023-04-06T12:02:47;14.70;68.10
53752;DHT22;41095;53.090;6.692;2023-04-06T12:05:13;14.70;67.80
53752;DHT22;41095;53.090;6.692;2023-04-06T12:07:38;14.70;67.90
53752;DHT22;41095;53.090;6.692;2023-04-06T12:10:04;14.80;68.50
53752;DHT22;41095;53.090;6.692;2023-04-06T12:12:30;14.90;68.70
53752;DHT22;41095;53.090;6.692;2023-04-06T12:14:56;14.90;69.00
53752;DHT22;41095;53.090;6.692;2023-04-06T12:17:22;14.80;68.70
53752;DHT22;41095;53.090;6.692;2023-04-06T12:19:48;14.70;68.10
53752;DHT22;41095;53.090;6.692;2023-04-06T12:22:14;14.70;69.00
53752;DHT22;41095;53.090;6.692;2023-04-06T12:24:40;14.60;68.60
53752;DHT22;41095;53.090;6.692;2023-04-06T12:27:06;14.60;69.00
53752;DHT22;41095;53.090;6.692;2023-04-06T12:29:32;14.60;67.30
53752;DHT22;41095;53.090;6.692;2023-04-06T12:31:58;14.60;66.80
53752;DHT22;41095;53.090;6.692;2023-04-06T12:34:26;14.60;66.90
53752;DHT22;41095;53.090;6.692;2023-04-06T12:36:52;14.60;66.60
53752;DHT22;41095;53.090;6.692;2023-04-06T12:39:18;14.50;66.70
53752;DHT22;41095;53.090;6.692;2023-04-06T12:41:44;14.30;65.80
53752;DHT22;41095;53.090;6.692;2023-04-06T12:44:10;14.40;66.70
53752;DHT22;41095;53.090;6.692;2023-04-06T12:46:36;14.40;66.90
53752;DHT22;41095;53.090;6.692;2023-04-06T12:49:02;14.40;67.80
53752;DHT22;41095;53.090;6.692;2023-04-06T12:51:28;14.40;66.30
53752;DHT22;41095;53.090;6.692;2023-04-06T12:53:54;14.30;67.10
53752;DHT22;41095;53.090;6.692;2023-04-06T12:56:20;14.40;68.50
53752;DHT22;41095;53.090;6.692;2023-04-06T12:58:49;14.50;68.60
53752;DHT22;41095;53.090;6.692;2023-04-06T13:01:15;14.60;68.20
53752;DHT22;41095;53.090;6.692;2023-04-06T13:03:41;14.60;68.20
53752;DHT22;41095;53.090;6.692;2023-04-06T13:06:08;14.60;67.60
53752;DHT22;41095;53.090;6.692;2023-04-06T13:08:34;14.50;67.50
53752;DHT22;41095;53.090;6.692;2023-04-06T13:11:02;14.40;66.60
53752;DHT22;41095;53.090;6.692;2023-04-06T13:13:29;14.50;67.90
53752;DHT22;41095;53.090;6.692;2023-04-06T13:16:03;14.50;67.60
53752;DHT22;41095;53.090;6.692;2023-04-06T13:18:30;14.50;67.50
53752;DHT22;41095;53.090;6.692;2023-04-06T13:20:57;14.50;67.40
53752;DHT22;41095;53.090;6.692;2023-04-06T13:23:23;14.60;67.70
53752;DHT22;41095;53.090;6.692;2023-04-06T13:26:00;14.70;68.30
53752;DHT22;41095;53.090;6.692;2023-04-06T13:28:26;14.80;68.20
53752;DHT22;41095;53.090;6.692;2023-04-06T13:30:53;14.70;67.50
53752;DHT22;41095;53.090;6.692;2023-04-06T13:33:19;14.70;67.30
53752;DHT22;41095;53.090;6.692;2023-04-06T13:35:45;14.60;66.80
53752;DHT22;41095;53.090;6.692;2023-04-06T13:38:11;14.50;67.80
53752;DHT22;41095;53.090;6.692;2023-04-06T13:40:40;14.60;68.00
53752;DHT22;41095;53.090;6.692;2023-04-06T13:43:06;14.70;68.10
53752;DHT22;41095;53.090;6.692;2023-04-06T13:45:32;14.50;67.10
53752;DHT22;41095;53.090;6.692;2023-04-06T13:47:58;14.50;67.80
53752;DHT22;41095;53.090;6.692;2023-04-06T13:50:27;14.60;68.20
53752;DHT22;41095;53.090;6.692;2023-04-06T13:52:53;14.60;68.20
53752;DHT22;41095;53.090;6.692;2023-04-06T13:55:19;14.70;69.60
53752;DHT22;41095;53.090;6.692;2023-04-06T13:57:45;14.70;69.50
53752;DHT22;41095;53.090;6.692;2023-04-06T14:00:11;14.50;69.60
53752;DHT22;41095;53.090;6.692;2023-04-06T14:02:39;14.40;70.00
53752;DHT22;41095;53.090;6.692;2023-04-06T14:05:05;14.30;70.30
53752;DHT22;41095;53.090;6.692;2023-04-06T14:07:31;14.20;71.00
53752;DHT22;41095;53.090;6.692;2023-04-06T14:09:56;14.20;71.10
53752;DHT22;41095;53.090;6.692;2023-04-06T14:12:22;14.20;72.20
53752;DHT22;41095;53.090;6.692;2023-04-06T14:14:48;14.10;71.50
53752;DHT22;41095;53.090;6.692;2023-04-06T14:17:13;14.10;72.00
53752;DHT22;41095;53.090;6.692;2023-04-06T14:19:39;14.20;72.50
53752;DHT22;41095;53.090;6.692;2023-04-06T14:22:05;14.20;71.90
53752;DHT22;41095;53.090;6.692;2023-04-06T14:24:31;14.20;72.30
53752;DHT22;41095;53.090;6.692;2023-04-06T14:26:57;14.10;72.20
53752;DHT22;41095;53.090;6.692;2023-04-06T14:29:23;14.10;71.90
53752;DHT22;41095;53.090;6.692;2023-04-06T14:31:48;14.00;72.80
53752;DHT22;41095;53.090;6.692;2023-04-06T14:34:14;14.00;72.40
53752;DHT22;41095;53.090;6.692;2023-04-06T14:36:42;13.60;73.20
53752;DHT22;41095;53.090;6.692;2023-04-06T14:39:08;14.00;73.00
53752;DHT22;41095;53.090;6.692;2023-04-06T14:41:34;14.00;73.40
53752;DHT22;41095;53.090;6.692;2023-04-06T14:44:00;13.90;74.60
53752;DHT22;41095;53.090;6.692;2023-04-06T14:46:27;13.90;74.80
53752;DHT22;41095;53.090;6.692;2023-04-06T14:48:56;13.90;75.60
53752;DHT22;41095;53.090;6.692;2023-04-06T14:51:24;13.70;74.60
53752;DHT22;41095;53.090;6.692;2023-04-06T14:53:50;13.70;75.00
53752;DHT22;41095;53.090;6.692;2023-04-06T14:56:23;13.70;75.80
53752;DHT22;41095;53.090;6.692;2023-04-06T14:58:50;13.50;78.30
53752;DHT22;41095;53.090;6.692;2023-04-06T15:01:20;13.40;78.30
53752;DHT22;41095;53.090;6.692;2023-04-06T15:03:46;13.30;80.20
53752;DHT22;41095;53.090;6.692;2023-04-06T15:06:13;13.10;82.20
53752;DHT22;41095;53.090;6.692;2023-04-06T15:08:42;13.00;83.10
53752;DHT22;41095;53.090;6.692;2023-04-06T15:11:09;12.90;84.30
53752;DHT22;41095;53.090;6.692;2023-04-06T15:13:34;12.70;83.80
53752;DHT22;41095;53.090;6.692;2023-04-06T15:16:00;12.70;86.00
53752;DHT22;41095;53.090;6.692;2023-04-06T15:18:26;12.50;86.40
53752;DHT22;41095;53.090;6.692;2023-04-06T15:20:52;12.50;85.00
53752;DHT22;41095;53.090;6.692;2023-04-06T15:23:17;12.30;86.50
53752;DHT22;41095;53.090;6.692;2023-04-06T15:25:43;12.30;86.90
53752;DHT22;41095;53.090;6.692;2023-04-06T15:28:09;12.20;88.40
53752;DHT22;41095;53.090;6.692;2023-04-06T15:30:36;12.10;90.10
53752;DHT22;41095;53.090;6.692;2023-04-06T15:33:03;12.10;90.60
53752;DHT22;41095;53.090;6.692;2023-04-06T15:35:29;12.10;90.80
53752;DHT22;41095;53.090;6.692;2023-04-06T15:37:56;12.00;90.10
53752;DHT22;41095;53.090;6.692;2023-04-06T15:40:23;12.00;90.30
53752;DHT22;41095;53.090;6.692;2023-04-06T15:42:49;12.00;89.90